Time;durP1;ratioP1;P1;durP2;ratioP2;P2;SDS_P1;SDS_P2;PMS_P1;PMS_P2;Temp;Humidity;BMP_temperature;BMP_pressure;BME280_temperature;BME280_humidity;BME280_pressure;Samples;Min_cycle;Max_cycle;Signal;HPM_P1;HPM_P2
2022/04/15 00:01:49;;;;;;;10.90;4.07;;;7.50;99.90;;;;;;5013788;28;20053;-88
2022/04/15 00:04:15;;;;;;;6.82;4.30;;;7.40;99.90;;;;;;4997335;28;20053;-88
2022/04/15 00:06:41;;;;;;;8.68;4.40;;;7.30;99.90;;;;;;4997655;28;20049;-88
2022/04/15 00:09:07;;;;;;;7.25;4.53;;;7.20;99.90;;;;;;4981088;28;20053;-87
2022/04/15 00:11:32;;;;;;;12.50;4.32;;;7.10;99.90;;;;;;5013662;28;20127;-88
2022/04/15 00:14:00;;;;;;;6.38;4.18;;;7.00;99.90;;;;;;5014389;28;20497;-88
2022/04/15 00:16:25;;;;;;;7.55;4.53;;;6.90;99.90;;;;;;4997369;28;20402;-87
2022/04/15 00:18:51;;;;;;;6.30;4.65;;;7.10;99.90;;;;;;5013362;28;20042;-87
2022/04/15 00:21:17;;;;;;;8.82;4.82;;;6.80;99.90;;;;;;5013407;28;20488;-88
2022/04/15 00:23:43;;;;;;;9.15;4.75;;;6.70;99.90;;;;;;5013431;28;20056;-87
2022/04/15 00:26:09;;;;;;;6.40;4.40;;;6.70;99.90;;;;;;4980708;28;20056;-87
2022/04/15 00:28:34;;;;;;;7.53;4.38;;;6.60;99.90;;;;;;4980906;28;20100;-87
2022/04/15 00:31:00;;;;;;;7.63;4.72;;;6.50;99.90;;;;;;4980905;28;20455;-88
2022/04/15 00:33:26;;;;;;;10.70;4.60;;;6.50;99.90;;;;;;4965022;28;20045;-87
2022/04/15 00:35:52;;;;;;;6.78;4.68;;;6.40;99.90;;;;;;5013180;28;20041;-87
2022/04/15 00:38:18;;;;;;;7.13;4.50;;;6.40;99.90;;;;;;4996522;28;20370;-87
2022/04/15 00:40:44;;;;;;;7.38;4.43;;;6.40;99.90;;;;;;5013377;28;20042;-87
2022/04/15 00:43:09;;;;;;;11.38;4.70;;;6.30;99.90;;;;;;4997026;28;20042;-87
2022/04/15 00:45:35;;;;;;;9.63;5.35;;;6.30;99.90;;;;;;4980541;28;20065;-88
2022/04/15 00:48:01;;;;;;;7.25;4.68;;;6.20;99.90;;;;;;4997059;28;20057;-87
2022/04/15 00:50:30;;;;;;;7.05;4.75;;;6.20;99.90;;;;;;4996981;28;20042;-88
2022/04/15 00:52:58;;;;;;;9.82;5.20;;;6.30;99.90;;;;;;4996305;28;20069;-88
2022/04/15 00:55:25;;;;;;;9.85;4.55;;;6.30;99.90;;;;;;4997079;28;20052;-88
2022/04/15 00:57:53;;;;;;;8.88;4.25;;;6.30;99.90;;;;;;4996815;28;20398;-87
2022/04/15 01:00:20;;;;;;;9.27;4.80;;;6.40;99.90;;;;;;4996778;28;20057;-88
2022/04/15 01:02:46;;;;;;;7.90;4.60;;;6.50;99.90;;;;;;4996952;28;20072;-87
2022/04/15 01:05:13;;;;;;;10.73;4.97;;;6.90;99.90;;;;;;5013117;28;20446;-87
2022/04/15 01:07:41;;;;;;;6.68;4.63;;;6.20;99.90;;;;;;4996422;28;20057;-87
2022/04/15 01:10:10;;;;;;;8.40;4.03;;;6.20;99.90;;;;;;4980467;28;20050;-87
2022/04/15 01:12:41;;;;;;;10.27;5.13;;;6.30;99.90;;;;;;5012765;28;20068;-88
2022/04/15 01:15:10;;;;;;;7.22;4.55;;;6.50;99.90;;;;;;4996451;28;20093;-88
2022/04/15 01:17:37;;;;;;;8.65;4.60;;;6.60;99.90;;;;;;5012912;28;20042;-88
2022/04/15 01:20:10;;;;;;;7.63;4.50;;;6.70;99.90;;;;;;4996434;28;20057;-88
2022/04/15 01:22:44;;;;;;;10.77;4.38;;;6.70;99.90;;;;;;5012614;28;20042;-87
2022/04/15 01:25:15;;;;;;;8.23;4.75;;;6.60;99.90;;;;;;5012419;28;20053;-88
2022/04/15 01:27:46;;;;;;;8.48;5.00;;;6.70;99.90;;;;;;5012521;28;20081;-87
2022/04/15 01:30:17;;;;;;;8.82;4.82;;;6.70;99.90;;;;;;4996243;28;20050;-87
2022/04/15 01:32:43;;;;;;;8.63;4.90;;;6.70;99.90;;;;;;4980910;28;20054;-88
2022/04/15 01:35:11;;;;;;;7.80;4.60;;;6.80;99.90;;;;;;5012504;28;20050;-87
2022/04/15 01:37:38;;;;;;;13.25;5.25;;;6.90;99.90;;;;;;5012406;28;20137;-88
2022/04/15 01:40:05;;;;;;;8.57;5.18;;;7.10;99.90;;;;;;5012428;28;20041;-88
2022/04/15 01:42:32;;;;;;;8.02;4.65;;;7.10;99.90;;;;;;4996391;28;20062;-87
2022/04/15 01:44:58;;;;;;;7.72;5.10;;;7.10;99.90;;;;;;4963981;28;20092;-88
2022/04/15 01:47:24;;;;;;;8.70;4.75;;;7.20;99.90;;;;;;4996206;28;20534;-88
2022/04/15 01:49:50;;;;;;;7.05;4.50;;;7.20;99.90;;;;;;4996061;28;20144;-87
2022/04/15 01:52:15;;;;;;;8.27;4.85;;;7.30;99.90;;;;;;5011921;28;20249;-87
2022/04/15 01:54:41;;;;;;;8.95;5.22;;;7.30;99.90;;;;;;4980824;28;20050;-88
2022/04/15 01:57:07;;;;;;;8.93;5.30;;;7.40;99.90;;;;;;4983626;28;20430;-87
2022/04/15 01:59:33;;;;;;;10.23;5.70;;;7.40;99.90;;;;;;4999538;28;20124;-87
2022/04/15 02:01:58;;;;;;;9.43;4.57;;;7.50;99.90;;;;;;5016326;28;20084;-87
2022/04/15 02:04:27;;;;;;;9.25;4.95;;;7.50;99.90;;;;;;4999465;28;20080;-87
2022/04/15 02:06:54;;;;;;;9.07;4.90;;;7.50;99.90;;;;;;5015979;28;20081;-87
2022/04/15 02:09:20;;;;;;;8.35;5.20;;;7.50;99.90;;;;;;5016718;28;20053;-87
2022/04/15 02:11:46;;;;;;;11.70;5.07;;;7.40;99.90;;;;;;5015863;28;20077;-87
2022/04/15 02:14:13;;;;;;;8.48;5.15;;;7.40;99.90;;;;;;5015555;28;20504;-87
2022/04/15 02:16:39;;;;;;;11.80;5.22;;;7.40;99.90;;;;;;4999439;28;20049;-87
2022/04/15 02:19:05;;;;;;;8.13;5.32;;;7.60;99.90;;;;;;4999133;28;20038;-87
2022/04/15 02:21:32;;;;;;;10.05;5.32;;;7.40;99.90;;;;;;4999263;28;20057;-87
2022/04/15 02:23:57;;;;;;;9.52;6.18;;;7.30;99.90;;;;;;5015622;28;20053;-87
2022/04/15 02:26:23;;;;;;;9.63;5.07;;;7.30;99.90;;;;;;4999054;28;20050;-87
2022/04/15 02:28:49;;;;;;;10.07;5.68;;;7.30;99.90;;;;;;4999489;28;20057;-87
2022/04/15 02:31:15;;;;;;;12.25;5.47;;;7.40;99.90;;;;;;4999290;28;20478;-87
2022/04/15 02:33:41;;;;;;;11.48;6.60;;;7.40;99.90;;;;;;5015550;28;20136;-87
2022/04/15 02:36:07;;;;;;;11.32;6.72;;;7.30;99.90;;;;;;5016287;28;20408;-88
2022/04/15 02:38:33;;;;;;;9.23;5.00;;;7.30;99.90;;;;;;4982527;28;20252;-87
2022/04/15 02:40:59;;;;;;;8.23;4.93;;;7.30;99.90;;;;;;5015387;28;20135;-87
2022/04/15 02:43:31;;;;;;;8.40;5.15;;;7.30;99.90;;;;;;4999031;28;20046;-87
2022/04/15 02:46:02;;;;;;;10.65;5.43;;;7.30;99.90;;;;;;4999811;28;20180;-88
2022/04/15 02:48:29;;;;;;;8.25;5.70;;;7.50;99.90;;;;;;4982752;28;20064;-88
2022/04/15 02:50:55;;;;;;;11.48;5.78;;;7.80;99.90;;;;;;5015089;28;20112;-88
2022/04/15 02:53:23;;;;;;;9.90;5.82;;;7.40;99.90;;;;;;5014793;28;20100;-87
2022/04/15 02:55:49;;;;;;;7.88;5.00;;;7.40;99.90;;;;;;5015284;28;20144;-87
2022/04/15 02:58:15;;;;;;;8.15;4.57;;;7.50;99.90;;;;;;4998862;28;20045;-88
2022/04/15 03:00:41;;;;;;;13.52;5.80;;;7.40;99.90;;;;;;4999342;28;20056;-87
2022/04/15 03:03:07;;;;;;;8.77;5.47;;;7.40;99.90;;;;;;4998661;28;20085;-88
2022/04/15 03:05:32;;;;;;;11.13;5.60;;;7.40;99.90;;;;;;4999320;28;20099;-87
2022/04/15 03:07:58;;;;;;;10.07;5.25;;;7.30;99.90;;;;;;4998815;28;20046;-88
2022/04/15 03:10:24;;;;;;;7.68;5.20;;;7.30;99.90;;;;;;4998573;28;20132;-88
2022/04/15 03:12:49;;;;;;;10.05;5.22;;;7.40;99.90;;;;;;4982246;28;20502;-87
2022/04/15 03:15:16;;;;;;;9.55;5.55;;;7.40;99.90;;;;;;4982458;28;20046;-87
2022/04/15 03:17:42;;;;;;;8.93;5.22;;;7.30;99.90;;;;;;4998453;28;20041;-88
2022/04/15 03:20:08;;;;;;;8.75;4.50;;;7.40;99.90;;;;;;5014484;28;20367;-88
2022/04/15 03:22:39;;;;;;;8.35;4.97;;;7.40;99.90;;;;;;5014417;28;20042;-88
2022/04/15 03:25:07;;;;;;;8.05;4.88;;;7.40;99.90;;;;;;5015322;28;20053;-87
2022/04/15 03:27:32;;;;;;;8.73;5.20;;;7.40;99.90;;;;;;5014082;28;20042;-87
2022/04/15 03:29:58;;;;;;;11.48;5.93;;;7.40;99.90;;;;;;5014313;28;20076;-87
2022/04/15 03:32:25;;;;;;;9.18;5.45;;;7.40;99.90;;;;;;5014001;28;20049;-87
2022/04/15 03:34:55;;;;;;;11.98;6.28;;;7.50;99.90;;;;;;5014214;28;20374;-86
2022/04/15 03:37:20;;;;;;;10.05;5.28;;;7.50;99.90;;;;;;5014288;28;20041;-87
2022/04/15 03:39:46;;;;;;;9.13;5.22;;;7.50;99.90;;;;;;5013913;28;20052;-87
2022/04/15 03:42:12;;;;;;;7.85;5.35;;;7.50;99.90;;;;;;4981784;28;20046;-87
2022/04/15 03:44:37;;;;;;;9.70;5.57;;;7.60;99.90;;;;;;4997908;28;20042;-87
2022/04/15 03:47:04;;;;;;;9.23;5.22;;;7.50;99.90;;;;;;4997892;28;20049;-87
2022/04/15 03:49:30;;;;;;;13.45;6.20;;;7.60;99.90;;;;;;4997687;28;20532;-87
2022/04/15 03:51:56;;;;;;;9.23;5.47;;;7.50;99.90;;;;;;4997075;28;20058;-87
2022/04/15 03:54:22;;;;;;;9.57;5.03;;;7.50;99.90;;;;;;4998390;28;20056;-87
2022/04/15 03:56:47;;;;;;;11.93;6.50;;;7.50;99.90;;;;;;4981435;28;20048;-87
2022/04/15 03:59:14;;;;;;;9.07;5.13;;;7.50;99.90;;;;;;5013663;28;20133;-87
2022/04/15 04:01:39;;;;;;;8.55;4.97;;;7.60;99.90;;;;;;4997536;28;20102;-86
2022/04/15 04:04:05;;;;;;;10.63;5.15;;;7.60;99.90;;;;;;4981267;28;20045;-87
2022/04/15 04:06:31;;;;;;;8.07;5.55;;;7.50;99.90;;;;;;4997543;28;20042;-87
2022/04/15 04:08:57;;;;;;;9.80;5.20;;;7.50;99.90;;;;;;5013795;28;20277;-87
2022/04/15 04:11:23;;;;;;;10.18;5.22;;;7.50;99.90;;;;;;4997391;28;20554;-86
2022/04/15 04:13:48;;;;;;;14.20;5.45;;;7.50;99.90;;;;;;4997266;28;20057;-87
2022/04/15 04:16:16;;;;;;;8.77;5.43;;;7.50;99.90;;;;;;5013435;28;20491;-87
2022/04/15 04:18:43;;;;;;;9.63;4.78;;;7.50;99.90;;;;;;4964582;28;20042;-87
2022/04/15 04:21:09;;;;;;;9.77;4.97;;;7.50;99.90;;;;;;4981259;28;20057;-86
2022/04/15 04:23:35;;;;;;;11.00;4.95;;;7.50;99.90;;;;;;4997395;28;20053;-87
2022/04/15 04:26:01;;;;;;;10.73;5.03;;;7.50;99.90;;;;;;4981753;28;20120;-86
2022/04/15 04:28:27;;;;;;;9.40;5.15;;;7.50;99.90;;;;;;5013308;28;20425;-87
2022/04/15 04:30:53;;;;;;;10.45;4.82;;;7.50;99.90;;;;;;4997147;28;20125;-86
2022/04/15 04:33:19;;;;;;;8.00;5.22;;;7.50;99.90;;;;;;4997746;28;20056;-87
2022/04/15 04:35:45;;;;;;;10.25;4.88;;;7.50;99.90;;;;;;4997036;28;20097;-87
2022/04/15 04:38:11;;;;;;;12.07;5.30;;;7.50;99.90;;;;;;4997061;28;20133;-87
2022/04/15 04:40:37;;;;;;;11.05;5.13;;;7.60;99.90;;;;;;4980807;28;20390;-87
2022/04/15 04:43:04;;;;;;;10.05;5.40;;;7.60;99.90;;;;;;5013637;28;20133;-87
2022/04/15 04:45:32;;;;;;;9.85;5.20;;;7.60;99.90;;;;;;4996790;28;20095;-87
2022/04/15 04:48:00;;;;;;;7.95;5.32;;;7.70;99.90;;;;;;4997508;28;20053;-87
2022/04/15 04:50:26;;;;;;;10.98;5.50;;;7.70;99.90;;;;;;5013763;28;20390;-87
2022/04/15 04:52:52;;;;;;;10.20;5.60;;;7.70;99.90;;;;;;4996459;28;20100;-87
2022/04/15 04:55:18;;;;;;;10.73;5.68;;;7.70;99.90;;;;;;5013790;28;20076;-87
2022/04/15 04:57:44;;;;;;;9.35;5.70;;;7.80;99.90;;;;;;4980338;28;20053;-87
2022/04/15 05:00:15;;;;;;;9.38;6.20;;;7.80;99.90;;;;;;4996875;28;20053;-87
2022/04/15 05:02:41;;;;;;;10.40;6.28;;;7.90;99.90;;;;;;4997127;28;20045;-87
2022/04/15 05:05:08;;;;;;;11.55;6.57;;;7.90;99.90;;;;;;4996534;28;20081;-87
2022/04/15 05:07:35;;;;;;;11.13;6.35;;;7.90;99.90;;;;;;5013091;28;20054;-86
2022/04/15 05:10:01;;;;;;;10.23;6.38;;;7.90;99.90;;;;;;4996693;28;20053;-87
2022/04/15 05:12:27;;;;;;;11.98;6.80;;;7.90;99.90;;;;;;5012861;28;20046;-87
2022/04/15 05:14:52;;;;;;;9.65;6.40;;;8.00;99.90;;;;;;4996448;28;20049;-87
2022/04/15 05:17:19;;;;;;;10.35;6.53;;;8.00;99.90;;;;;;5012749;28;20050;-87
2022/04/15 05:19:45;;;;;;;9.23;6.25;;;8.30;99.90;;;;;;4980707;28;20093;-87
2022/04/15 05:22:11;;;;;;;9.65;5.88;;;8.00;99.90;;;;;;4980167;28;20101;-87
2022/04/15 05:24:38;;;;;;;9.65;6.03;;;8.00;99.90;;;;;;4996347;28;20050;-87
2022/04/15 05:27:04;;;;;;;7.28;5.13;;;8.00;99.90;;;;;;5012677;28;20049;-87
2022/04/15 05:29:30;;;;;;;8.88;5.00;;;8.00;99.90;;;;;;5013375;28;20057;-87
2022/04/15 05:31:56;;;;;;;8.13;4.93;;;8.00;99.90;;;;;;4984174;28;20136;-86
2022/04/15 05:34:23;;;;;;;7.88;4.47;;;8.00;99.90;;;;;;5000316;28;20050;-87
2022/04/15 05:36:48;;;;;;;6.90;4.88;;;8.00;99.90;;;;;;5000278;28;20060;-87
2022/04/15 05:39:14;;;;;;;8.45;4.85;;;8.00;99.90;;;;;;4983829;28;20046;-87
2022/04/15 05:41:40;;;;;;;7.10;4.88;;;7.90;99.90;;;;;;5000262;28;20042;-87
2022/04/15 05:44:08;;;;;;;6.15;4.55;;;8.00;99.90;;;;;;5016456;28;20147;-87
2022/04/15 05:46:37;;;;;;;9.75;5.40;;;7.90;99.90;;;;;;4984995;28;20057;-88
2022/04/15 05:49:13;;;;;;;7.45;5.20;;;8.00;99.90;;;;;;5000799;28;20042;-87
2022/04/15 05:51:42;;;;;;;6.55;4.68;;;7.90;99.90;;;;;;5000584;28;20059;-87
2022/04/15 05:54:08;;;;;;;8.13;4.68;;;7.90;99.90;;;;;;5016578;28;20174;-87
2022/04/15 05:56:34;;;;;;;6.78;3.80;;;7.90;99.90;;;;;;4999513;28;20085;-86
2022/04/15 05:58:59;;;;;;;7.40;4.20;;;7.90;99.90;;;;;;4999553;28;20042;-87
2022/04/15 06:01:25;;;;;;;7.32;4.80;;;7.90;99.90;;;;;;5015842;28;20056;-87
2022/04/15 06:03:51;;;;;;;6.32;4.28;;;7.90;99.90;;;;;;4999598;28;20046;-87
2022/04/15 06:06:17;;;;;;;7.00;4.32;;;7.90;99.90;;;;;;4999796;28;20038;-87
2022/04/15 06:08:42;;;;;;;6.82;4.45;;;7.90;99.90;;;;;;4999894;28;20177;-87
2022/04/15 06:11:08;;;;;;;6.50;4.50;;;7.80;99.90;;;;;;4984303;28;20050;-88
2022/04/15 06:13:34;;;;;;;6.35;4.15;;;7.90;99.90;;;;;;4999620;28;20121;-87
2022/04/15 06:16:00;;;;;;;6.65;4.30;;;7.90;99.90;;;;;;4999236;28;20376;-87
2022/04/15 06:18:29;;;;;;;7.70;4.78;;;7.90;99.90;;;;;;4999389;28;20042;-87
2022/04/15 06:20:55;;;;;;;7.72;4.13;;;7.90;99.90;;;;;;4999485;28;20505;-87
2022/04/15 06:23:21;;;;;;;6.82;4.60;;;8.00;99.90;;;;;;4999586;28;20050;-86
2022/04/15 06:25:47;;;;;;;7.93;4.57;;;8.00;99.90;;;;;;4983155;28;20041;-87
2022/04/15 06:28:13;;;;;;;7.20;4.57;;;8.00;99.90;;;;;;5002723;28;20049;-87
2022/04/15 06:30:39;;;;;;;8.00;4.80;;;7.90;99.90;;;;;;4986327;28;20403;-87
2022/04/15 06:33:06;;;;;;;9.30;4.93;;;7.90;99.90;;;;;;5017835;28;20136;-87
2022/04/15 06:35:33;;;;;;;7.35;4.32;;;7.90;99.90;;;;;;4999097;28;20049;-87
2022/04/15 06:37:59;;;;;;;7.32;4.38;;;7.90;99.90;;;;;;4999787;28;20053;-87
2022/04/15 06:40:25;;;;;;;10.40;5.15;;;7.90;99.90;;;;;;4998899;28;20490;-87
2022/04/15 06:42:50;;;;;;;8.00;4.53;;;7.90;99.90;;;;;;5014354;28;20049;-86
2022/04/15 06:45:16;;;;;;;7.05;5.25;;;7.80;99.90;;;;;;4998962;28;20038;-87
2022/04/15 06:47:42;;;;;;;7.72;4.80;;;7.80;99.90;;;;;;5014964;28;20056;-86
2022/04/15 06:50:08;;;;;;;6.90;4.63;;;7.80;99.90;;;;;;4998870;28;20141;-87
2022/04/15 06:52:34;;;;;;;7.03;4.90;;;7.90;99.90;;;;;;4982085;28;20061;-87
2022/04/15 06:55:00;;;;;;;8.80;5.20;;;7.90;99.90;;;;;;4982886;28;20112;-87
2022/04/15 06:57:26;;;;;;;7.57;5.28;;;7.90;99.90;;;;;;4983297;28;20125;-87
2022/04/15 06:59:51;;;;;;;6.85;4.63;;;7.90;99.90;;;;;;4999189;28;20049;-87
2022/04/15 07:02:17;;;;;;;7.43;5.10;;;7.90;99.90;;;;;;5015280;28;20050;-87
2022/04/15 07:04:43;;;;;;;9.02;5.03;;;7.90;99.90;;;;;;5014936;28;20089;-86
2022/04/15 07:07:09;;;;;;;7.75;5.45;;;7.90;99.90;;;;;;4982455;28;20143;-87
2022/04/15 07:09:35;;;;;;;9.70;5.47;;;7.90;99.90;;;;;;5015120;28;20061;-87
2022/04/15 07:12:00;;;;;;;6.35;5.03;;;8.20;99.90;;;;;;4999331;28;20052;-87
2022/04/15 07:14:26;;;;;;;8.90;5.57;;;8.00;99.90;;;;;;5001374;28;20042;-87
2022/04/15 07:16:52;;;;;;;8.95;4.93;;;8.00;99.90;;;;;;4982267;28;20137;-87
2022/04/15 07:19:17;;;;;;;8.95;5.38;;;8.00;99.90;;;;;;5014684;28;20092;-87
2022/04/15 07:21:43;;;;;;;11.32;5.90;;;8.10;99.90;;;;;;4997568;28;20052;-88
2022/04/15 07:24:09;;;;;;;10.80;5.88;;;8.10;99.90;;;;;;5014912;28;20064;-87
2022/04/15 07:26:35;;;;;;;10.45;5.70;;;8.10;99.90;;;;;;4998050;28;20446;-87
2022/04/15 07:29:02;;;;;;;9.30;5.35;;;8.10;99.90;;;;;;5014198;28;20044;-85
2022/04/15 07:31:28;;;;;;;8.73;5.53;;;8.10;99.90;;;;;;5014319;28;20500;-86
2022/04/15 07:33:53;;;;;;;9.85;5.47;;;8.20;99.90;;;;;;5014102;28;20046;-86
2022/04/15 07:39:03;;;;;;;12.70;6.60;;;8.20;99.90;;;;;;5000168;28;20085;-84
2022/04/15 07:41:29;;;;;;;10.98;6.88;;;8.60;99.90;;;;;;5014204;28;20140;-86
2022/04/15 07:43:55;;;;;;;13.00;6.28;;;8.20;99.90;;;;;;4981667;28;20093;-87
2022/04/15 07:46:20;;;;;;;11.00;7.20;;;8.20;99.90;;;;;;4997811;28;20049;-87
2022/04/15 07:48:46;;;;;;;11.43;6.53;;;8.30;99.90;;;;;;5013676;28;20151;-86
2022/04/15 07:51:12;;;;;;;15.80;7.53;;;8.30;99.90;;;;;;4997483;28;20372;-85
2022/04/15 07:53:38;;;;;;;11.75;7.13;;;8.30;99.90;;;;;;5014045;28;20061;-85
2022/04/15 07:56:04;;;;;;;12.45;7.00;;;8.30;99.90;;;;;;5014002;28;20069;-87
2022/04/15 07:58:31;;;;;;;11.88;6.70;;;8.40;99.90;;;;;;4997451;28;20092;-86
2022/04/15 08:01:00;;;;;;;12.27;7.40;;;8.70;99.90;;;;;;5014088;28;20050;-87
2022/04/15 08:03:29;;;;;;;12.98;7.57;;;8.40;99.90;;;;;;4981859;28;20050;-87
2022/04/15 08:05:55;;;;;;;11.73;7.45;;;8.40;99.90;;;;;;5013863;28;20037;-88
2022/04/15 08:08:21;;;;;;;13.20;8.32;;;8.40;99.90;;;;;;5014766;28;20544;-83
2022/04/15 08:10:51;;;;;;;12.13;7.07;;;8.40;99.90;;;;;;4997591;28;20053;-86
2022/04/15 08:13:17;;;;;;;12.68;7.07;;;8.40;99.90;;;;;;5013502;28;20443;-86
2022/04/15 08:15:43;;;;;;;13.63;7.43;;;8.50;99.90;;;;;;5013568;28;20053;-87
2022/04/15 08:18:09;;;;;;;13.93;7.75;;;8.50;99.90;;;;;;4997208;28;20046;-86
2022/04/15 08:20:34;;;;;;;15.38;7.85;;;8.50;99.90;;;;;;5013462;28;20046;-86
2022/04/15 08:23:00;;;;;;;14.43;7.90;;;8.50;99.90;;;;;;4965164;28;20046;-86
2022/04/15 08:25:26;;;;;;;14.27;8.40;;;8.60;99.90;;;;;;4997155;28;20057;-87
2022/04/15 08:27:52;;;;;;;17.42;8.48;;;8.60;99.90;;;;;;4997231;28;20053;-86
2022/04/15 08:30:17;;;;;;;11.90;7.80;;;8.60;99.90;;;;;;4997033;28;20279;-86
2022/04/15 08:32:49;;;;;;;14.35;8.30;;;8.60;99.90;;;;;;4997035;28;20049;-85
2022/04/15 08:35:15;;;;;;;16.13;9.40;;;8.60;99.90;;;;;;4997719;28;20050;-87
2022/04/15 08:37:41;;;;;;;19.95;10.25;;;8.60;99.90;;;;;;5013849;28;20538;-85
2022/04/15 08:40:08;;;;;;;14.50;9.02;;;8.70;99.90;;;;;;4997399;28;20052;-85
2022/04/15 08:42:34;;;;;;;17.13;9.23;;;8.70;99.90;;;;;;4964514;28;20057;-85
2022/04/15 08:45:02;;;;;;;15.52;9.45;;;8.70;99.90;;;;;;4980585;28;20076;-85
2022/04/15 08:47:29;;;;;;;13.65;8.98;;;8.80;99.90;;;;;;5014340;28;20042;-85
2022/04/15 08:49:55;;;;;;;15.57;9.73;;;8.90;99.90;;;;;;4996812;28;20089;-85
2022/04/15 08:52:24;;;;;;;14.27;9.45;;;9.10;99.90;;;;;;4996072;28;20462;-86
2022/04/15 08:54:50;;;;;;;15.48;8.45;;;9.10;99.90;;;;;;4996571;28;20463;-84
2022/04/15 08:57:16;;;;;;;13.82;8.35;;;9.20;99.90;;;;;;4996605;28;20092;-84
2022/04/15 08:59:41;;;;;;;13.35;7.95;;;9.20;99.90;;;;;;4998077;28;20042;-84
2022/04/15 09:02:07;;;;;;;12.15;8.15;;;9.20;99.90;;;;;;5013867;28;20046;-88
2022/04/15 09:04:33;;;;;;;12.73;8.02;;;9.30;99.90;;;;;;4996755;28;20045;-88
2022/04/15 09:07:00;;;;;;;13.02;7.72;;;9.30;99.90;;;;;;4996433;28;20384;-87
2022/04/15 09:09:30;;;;;;;12.27;7.63;;;9.30;99.90;;;;;;5013338;28;20085;-86
2022/04/15 09:11:58;;;;;;;14.00;7.57;;;9.30;99.90;;;;;;4980574;28;20049;-86
2022/04/15 09:14:25;;;;;;;12.13;7.00;;;9.30;99.90;;;;;;4996792;28;20458;-85
2022/04/15 09:16:51;;;;;;;11.90;6.93;;;9.30;99.90;;;;;;4980205;28;20056;-86
2022/04/15 09:19:18;;;;;;;10.15;6.20;;;9.40;99.90;;;;;;5012293;28;20487;-88
2022/04/15 09:21:53;;;;;;;10.55;6.40;;;9.50;99.90;;;;;;4996372;28;20046;-87
2022/04/15 09:24:32;;;;;;;9.98;5.93;;;9.70;99.90;;;;;;4996586;28;20057;-88
2022/04/15 09:27:06;;;;;;;8.73;6.25;;;9.80;99.90;;;;;;4996684;28;20061;-87
2022/04/15 09:29:38;;;;;;;8.55;5.30;;;9.80;99.90;;;;;;4996611;28;20054;-86
2022/04/15 09:32:14;;;;;;;7.65;5.32;;;9.90;99.90;;;;;;4964594;28;20542;-85
2022/04/15 09:35:05;;;;;;;10.88;6.22;;;10.00;99.90;;;;;;4996232;28;20045;-85
2022/04/15 09:37:37;;;;;;;9.10;5.18;;;10.00;99.90;;;;;;5013325;28;20402;-86
2022/04/15 09:40:16;;;;;;;9.63;6.07;;;10.00;99.90;;;;;;4996787;28;20041;-83
2022/04/15 09:42:48;;;;;;;10.00;6.38;;;10.00;99.90;;;;;;4996252;28;20049;-88
2022/04/15 09:45:22;;;;;;;9.70;6.28;;;10.00;99.90;;;;;;5012608;28;20042;-87
2022/04/15 09:47:59;;;;;;;11.65;5.90;;;9.90;99.90;;;;;;4996130;28;20053;-85
2022/04/15 09:50:27;;;;;;;11.63;6.28;;;10.00;99.90;;;;;;5012308;28;20046;-85
2022/04/15 09:53:24;;;;;;;7.88;6.20;;;9.90;99.90;;;;;;4995958;28;20518;-85
2022/04/15 09:55:51;;;;;;;9.00;5.90;;;10.00;99.90;;;;;;4977160;28;20443;-87
2022/04/15 09:58:23;;;;;;;8.23;5.65;;;10.10;99.90;;;;;;4996079;28;20057;-87
2022/04/15 10:00:53;;;;;;;9.23;5.22;;;10.20;99.90;;;;;;4996235;28;20057;-86
2022/04/15 10:03:21;;;;;;;10.95;5.80;;;10.30;99.90;;;;;;5012976;28;20057;-83
2022/04/15 10:05:48;;;;;;;7.30;5.05;;;10.50;99.90;;;;;;5012171;28;20147;-85
2022/04/15 10:08:15;;;;;;;10.50;5.45;;;10.60;99.90;;;;;;5012210;28;20042;-84
2022/04/15 10:10:41;;;;;;;8.80;5.82;;;10.70;99.90;;;;;;5012470;28;20049;-83
2022/04/15 10:13:07;;;;;;;8.48;4.88;;;10.90;99.90;;;;;;4996049;28;20372;-84
2022/04/15 10:15:34;;;;;;;9.02;5.75;;;11.00;99.90;;;;;;4995831;28;20049;-84
2022/04/15 10:18:01;;;;;;;9.73;5.10;;;11.10;99.90;;;;;;4998367;28;20054;-86
2022/04/15 10:20:29;;;;;;;10.60;5.50;;;11.20;99.90;;;;;;4999821;28;20470;-85
2022/04/15 10:23:00;;;;;;;8.85;5.03;;;11.20;99.90;;;;;;5015635;28;20136;-85
2022/04/15 10:25:26;;;;;;;8.13;5.03;;;11.30;99.90;;;;;;4999685;28;20046;-86
2022/04/15 10:27:52;;;;;;;7.60;5.13;;;11.30;99.90;;;;;;4983967;28;20363;-87
2022/04/15 10:30:19;;;;;;;8.63;5.28;;;11.40;99.90;;;;;;4999188;28;20049;-86
2022/04/15 10:32:49;;;;;;;7.72;5.45;;;11.50;99.90;;;;;;5015760;28;20057;-87
2022/04/15 10:35:26;;;;;;;8.27;5.05;;;11.50;99.90;;;;;;5015742;28;20096;-85
2022/04/15 10:38:02;;;;;;;10.20;5.28;;;11.50;99.90;;;;;;5015308;28;20056;-85
2022/04/15 10:40:32;;;;;;;;;;;11.40;99.90;;;;;;4999732;28;20050;-85
2022/04/15 10:43:06;;;;;;;10.02;5.35;;;11.30;99.90;;;;;;5015186;28;20386;-85
2022/04/15 10:45:36;;;;;;;8.45;4.80;;;11.40;99.90;;;;;;4966814;28;20053;-86
2022/04/15 10:48:03;;;;;;;8.35;5.38;;;11.30;99.90;;;;;;4998948;28;20445;-86
2022/04/15 10:50:31;;;;;;;9.02;4.90;;;11.30;99.90;;;;;;5015958;28;20471;-86
2022/04/15 10:53:25;;;;;;;8.65;5.07;;;11.30;99.90;;;;;;4998477;28;20061;-86
2022/04/15 10:55:52;;;;;;;6.65;4.88;;;11.30;99.90;;;;;;5014782;28;20065;-87
2022/04/15 10:58:19;;;;;;;6.93;4.68;;;11.30;99.90;;;;;;4998798;28;20050;-86
2022/04/15 11:01:19;;;;;;;8.05;5.07;;;11.30;99.90;;;;;;5015223;28;20054;-87
2022/04/15 11:04:03;;;;;;;6.80;5.20;;;11.30;99.90;;;;;;4998983;28;20132;-86
2022/04/15 11:06:29;;;;;;;8.40;5.13;;;11.30;99.90;;;;;;5015438;28;20050;-87
2022/04/15 11:08:55;;;;;;;8.90;5.78;;;11.20;99.90;;;;;;5014956;28;20068;-86
2022/04/15 11:11:40;;;;;;;8.88;5.63;;;11.20;99.90;;;;;;4998510;28;20057;-84
2022/04/15 11:14:08;;;;;;;7.93;5.18;;;11.20;99.90;;;;;;4998356;28;20064;-85
2022/04/15 11:16:43;;;;;;;7.97;5.32;;;11.30;99.90;;;;;;4982475;28;20410;-86
2022/04/15 11:19:12;;;;;;;7.32;4.93;;;11.30;99.90;;;;;;5015316;28;20112;-86
2022/04/15 11:21:40;;;;;;;7.68;5.28;;;11.30;99.90;;;;;;4998706;28;20096;-85
2022/04/15 11:24:13;;;;;;;9.38;5.45;;;11.30;99.90;;;;;;4998249;28;20050;-86
2022/04/15 11:26:43;;;;;;;5.53;4.68;;;11.40;99.90;;;;;;4998165;28;20048;-86
2022/04/15 11:29:11;;;;;;;8.85;5.50;;;11.40;99.90;;;;;;4997419;28;20061;-86
2022/04/15 11:31:41;;;;;;;9.50;5.25;;;11.40;99.90;;;;;;5015141;28;20383;-86
2022/04/15 11:34:09;;;;;;;6.13;4.15;;;11.50;99.90;;;;;;4998014;28;20141;-86
2022/04/15 11:36:42;;;;;;;9.45;4.90;;;11.60;99.90;;;;;;4997267;28;20053;-88
2022/04/15 11:39:10;;;;;;;7.82;5.18;;;11.60;99.90;;;;;;4997747;28;20519;-86
2022/04/15 11:41:44;;;;;;;8.00;5.55;;;11.50;99.90;;;;;;5014125;28;20049;-86
2022/04/15 11:44:11;;;;;;;8.65;6.38;;;11.50;99.90;;;;;;5014079;28;20498;-86
2022/04/15 11:46:36;;;;;;;10.73;6.47;;;11.50;99.90;;;;;;4997694;28;20054;-86
2022/04/15 11:49:04;;;;;;;9.95;6.38;;;11.50;99.90;;;;;;5014837;28;20053;-87
2022/04/15 11:51:30;;;;;;;8.55;5.97;;;11.50;99.90;;;;;;4998157;28;20092;-86
2022/04/15 11:53:57;;;;;;;9.90;6.43;;;11.40;99.90;;;;;;4996869;28;20140;-87
2022/04/15 11:56:26;;;;;;;9.45;5.72;;;11.40;99.90;;;;;;5014087;28;20164;-85
2022/04/15 11:58:52;;;;;;;7.63;5.85;;;11.40;99.90;;;;;;5013472;28;20085;-86
2022/04/15 12:01:32;;;;;;;10.13;6.38;;;11.40;99.90;;;;;;4997765;28;20076;-86
2022/04/15 12:03:59;;;;;;;11.57;6.55;;;11.30;99.90;;;;;;5014576;28;20377;-85
2022/04/15 12:06:26;;;;;;;10.20;6.53;;;11.30;99.90;;;;;;4997400;28;20038;-85
2022/04/15 12:08:52;;;;;;;10.43;5.85;;;11.30;99.90;;;;;;5013492;28;20053;-84
2022/04/15 12:11:23;;;;;;;8.80;5.72;;;11.30;99.90;;;;;;5013690;28;20049;-85
2022/04/15 12:14:00;;;;;;;8.10;4.90;;;11.40;99.90;;;;;;4997112;28;20081;-84
2022/04/15 12:16:28;;;;;;;10.13;5.55;;;11.40;99.90;;;;;;5014331;28;20048;-84
2022/04/15 12:18:56;;;;;;;7.90;5.07;;;11.50;99.90;;;;;;5013286;28;20402;-84
2022/04/15 12:21:22;;;;;;;6.95;4.88;;;11.60;99.90;;;;;;4981237;28;20096;-86
2022/04/15 12:24:00;;;;;;;6.82;4.82;;;11.60;99.90;;;;;;5013017;28;20089;-86
2022/04/15 12:26:26;;;;;;;9.70;5.32;;;11.60;99.90;;;;;;5013622;28;20050;-85
2022/04/15 12:31:46;;;;;;;11.05;5.63;;;11.50;99.90;;;;;;4999255;28;20046;-84
2022/04/15 12:34:12;;;;;;;7.72;5.22;;;11.50;99.90;;;;;;5013537;28;20048;-84
2022/04/15 12:36:45;;;;;;;7.88;4.90;;;11.40;99.90;;;;;;4996886;28;20132;-84
2022/04/15 12:39:13;;;;;;;7.47;5.05;;;11.40;99.90;;;;;;4979422;28;20050;-85
2022/04/15 12:41:46;;;;;;;8.30;5.25;;;11.40;99.90;;;;;;5012968;28;20072;-85
2022/04/15 12:44:23;;;;;;;6.22;4.75;;;11.30;99.90;;;;;;4996561;28;20053;-87
2022/04/15 12:47:02;;;;;;;9.00;5.28;;;11.30;99.90;;;;;;4997011;28;20038;-86
2022/04/15 12:49:36;;;;;;;7.85;5.05;;;11.20;99.90;;;;;;5013008;28;20246;-86
2022/04/15 12:52:16;;;;;;;8.73;5.80;;;11.20;99.90;;;;;;5012607;28;20050;-86
2022/04/15 12:55:01;;;;;;;8.65;6.13;;;11.20;99.90;;;;;;5012803;28;20505;-86
2022/04/15 12:57:34;;;;;;;10.40;5.80;;;11.20;99.90;;;;;;4996871;28;20132;-87
2022/04/15 13:00:00;;;;;;;10.23;5.95;;;11.10;99.90;;;;;;5012395;28;20052;-85